Terminal Aerodrome Forecast
Issued by NWS

Home | Current Version | Previous Version | Text Only | Print | Product List | Glossary On
Versions: 1 2 3 4 5 6 7 8 9 10 11 12 13 14 15
000
FTAK31 PAJN 301100
TAFAJN
TAF
PAJN 301128Z 3012/0112 08007KT P6SM -SHRA FEW006 BKN035 OVC040
     FM301400 12010G20KT 6SM -SHRA BKN030 OVC040
      TEMPO 3017/3021 4SM -SHRA BKN025 OVC035
     FM302100 14010KT 6SM -SHRA BKN040 OVC060
     FM010100 VRB05KT P6SM VCSH BKN040 OVC060
     FM010400 VRB04KT P6SM SCT050 BKN070=

USA.gov is the U.S. government's official web portal to all federal, state and local government web resources and services.